Time;durP1;ratioP1;P1;durP2;ratioP2;P2;SDS_P1;SDS_P2;PMS_P1;PMS_P2;Temp;Humidity;BMP_temperature;BMP_pressure;BME280_temperature;BME280_humidity;BME280_pressure;Samples;Min_cycle;Max_cycle;Signal;HPM_P1;HPM_P2
2023/03/01 00:02:04;;;;;;;;;40.50;33.75;;;;;12.72;81.71;101274.78;146618;691;46020;-72
2023/03/01 00:05:28;;;;;;;;;41.00;33.50;;;;;12.63;80.52;101267.37;146617;621;46014;-72
2023/03/01 00:08:29;;;;;;;;;36.75;32.00;;;;;12.61;80.57;101262.91;146620;588;46020;-74
2023/03/01 00:11:49;;;;;;;;;43.25;34.75;;;;;12.66;81.66;101266.66;146616;564;46911;-73
2023/03/01 00:15:05;;;;;;;;;42.50;33.50;;;;;12.57;83.04;101272.25;146621;580;47020;-72
2023/03/01 00:18:30;;;;;;;;;32.25;29.25;;;;;12.46;82.92;101265.59;146616;595;46029;-71
2023/03/01 00:21:40;;;;;;;;;40.50;32.25;;;;;12.37;84.00;101266.03;146620;586;47010;-73
2023/03/01 00:24:45;;;;;;;;;55.75;41.25;;;;;10.39;84.32;100940.28;146620;606;46016;-72
2023/03/01 00:28:12;;;;;;;;;;;;;;;;;;;;;
2023/03/01 00:31:29;;;;;;;;;46.75;37.00;;;;;10.49;85.24;100944.28;146619;654;46012;-71
2023/03/01 00:34:39;;;;;;;;;50.50;36.00;;;;;12.27;84.99;101252.44;146620;589;46021;-72
2023/03/01 00:37:41;;;;;;;;;47.00;33.00;;;;;12.27;85.42;101263.75;146618;613;46012;-69
2023/03/01 00:40:53;;;;;;;;;38.50;31.75;;;;;12.25;85.69;101270.59;146621;626;46010;-73
2023/03/01 00:44:03;;;;;;;;;41.00;32.50;;;;;12.24;84.66;101253.19;146616;569;46016;-73
2023/03/01 00:47:09;;;;;;;;;29.50;24.75;;;;;12.27;84.95;101253.34;146615;706;46020;-72
2023/03/01 00:50:04;;;;;;;;;37.75;30.00;;;;;12.32;84.74;101246.69;146608;622;47013;-72
2023/03/01 00:53:20;;;;;;;;;38.75;32.00;;;;;12.42;83.56;101240.25;146621;574;46010;-72
2023/03/01 00:56:24;;;;;;;;;38.25;31.50;;;;;12.56;82.97;101238.38;146616;573;46015;-74
2023/03/01 00:59:47;;;;;;;;;39.75;32.50;;;;;12.70;82.38;101240.84;146617;607;46020;-74
2023/03/01 01:03:14;;;;;;;;;36.50;31.50;;;;;12.83;81.43;101249.28;146618;582;46017;-74
2023/03/01 01:06:20;;;;;;;;;46.50;35.50;;;;;12.90;80.86;101254.88;146618;625;46020;-74
2023/03/01 01:09:32;;;;;;;;;57.25;45.00;;;;;12.95;80.42;101242.09;146615;565;46016;-74
2023/03/01 01:12:42;;;;;;;;;52.00;39.75;;;;;12.96;79.69;101241.28;146619;569;46021;-74
2023/03/01 01:15:43;;;;;;;;;44.25;34.75;;;;;12.93;79.41;101233.34;146617;584;46016;-72
2023/03/01 01:18:58;;;;;;;;;;;;;;;;;;;;;
2023/03/01 01:22:14;;;;;;;;;40.50;35.00;;;;;10.95;78.81;100879.31;146615;569;46016;-70
2023/03/01 01:25:15;;;;;;;;;46.25;34.75;;;;;12.81;79.94;101211.91;146617;636;47010;-71
2023/03/01 01:28:20;;;;;;;;;40.25;33.00;;;;;12.69;82.23;101207.84;146617;647;46913;-71
2023/03/01 01:31:16;;;;;;;;;42.75;31.25;;;;;12.60;81.27;101214.31;146612;579;47010;-71
2023/03/01 01:34:13;;;;;;;;;44.75;34.75;;;;;12.59;81.33;101220.34;146618;594;46016;-71
2023/03/01 01:37:07;;;;;;;;;36.75;30.25;;;;;12.63;81.37;101227.47;146617;596;47010;-71
2023/03/01 01:40:13;;;;;;;;;39.25;32.50;;;;;12.71;81.29;101228.75;146616;610;47012;-71
2023/03/01 01:43:40;;;;;;;;;41.50;32.00;;;;;10.73;80.28;100880.78;146616;593;46010;-71
2023/03/01 01:46:55;;;;;;;;;;;;;;;;;;;;;
2023/03/01 01:50:21;;;;;;;;;43.00;32.50;;;;;10.93;79.24;100897.38;146610;588;46021;-70
2023/03/01 01:53:30;;;;;;;;;43.00;32.75;;;;;10.79;79.33;100867.25;146611;571;46014;-71
2023/03/01 01:56:39;;;;;;;;;41.00;33.00;;;;;12.91;79.95;101248.84;146611;580;46021;-70
2023/03/01 01:59:39;;;;;;;;;43.25;35.50;;;;;12.86;79.83;101245.12;146610;602;47012;-70
2023/03/01 02:02:42;;;;;;;;;43.00;34.00;;;;;12.83;80.04;101244.06;146610;651;47010;-71
2023/03/01 02:06:07;;;;;;;;;45.00;35.75;;;;;12.80;79.61;101249.12;146608;629;46017;-70
2023/03/01 02:09:16;;;;;;;;;44.50;34.50;;;;;12.80;80.25;101250.00;146614;639;46020;-70
2023/03/01 02:12:26;;;;;;;;;43.00;32.00;;;;;12.77;80.81;101244.66;146611;576;46035;-69
2023/03/01 02:15:49;;;;;;;;;44.25;35.25;;;;;10.91;80.41;100924.06;146613;593;46020;-72
2023/03/01 02:18:48;;;;;;;;;37.50;32.00;;;;;12.77;80.99;101249.84;146609;588;46017;-73
2023/03/01 02:22:09;;;;;;;;;36.00;32.00;;;;;12.79;81.66;101249.94;146613;598;46012;-72
2023/03/01 02:25:40;;;;;;;;;39.75;29.75;;;;;12.78;81.41;101240.37;146610;606;46017;-74
2023/03/01 02:28:46;;;;;;;;;35.00;30.25;;;;;12.78;81.86;101248.19;146613;583;46012;-73
2023/03/01 02:31:47;;;;;;;;;40.50;31.25;;;;;12.81;81.78;101250.94;146612;614;46016;-74
2023/03/01 02:34:43;;;;;;;;;31.50;29.00;;;;;12.86;81.89;101252.91;146614;614;46020;-74
2023/03/01 02:38:00;;;;;;;;;34.75;27.00;;;;;12.13;81.20;101151.25;146612;581;46911;-72
2023/03/01 02:41:03;;;;;;;;;34.50;29.25;;;;;12.98;81.57;101251.75;146612;650;46010;-73
2023/03/01 02:43:57;;;;;;;;;34.00;30.00;;;;;13.06;81.28;101258.25;146612;571;46012;-72
2023/03/01 02:47:09;;;;;;;;;30.50;28.25;;;;;11.36;80.40;100938.53;146614;578;46021;-73
2023/03/01 02:50:54;;;;;;;;;35.00;32.00;;;;;11.38;80.56;100921.34;146609;566;46012;-75
2023/03/01 02:54:39;;;;;;;;;35.75;31.75;;;;;13.14;80.85;101225.66;146614;584;46011;-73
2023/03/01 02:57:51;;;;;;;;;54.00;42.25;;;;;13.11;81.61;101238.53;146612;607;46018;-74
2023/03/01 03:01:04;;;;;;;;;53.50;41.50;;;;;13.07;81.45;101234.00;146612;575;46020;-71
2023/03/01 03:04:21;;;;;;;;;32.00;25.50;;;;;11.07;80.99;100887.72;146612;571;46034;-71
2023/03/01 03:07:25;;;;;;;;;29.50;26.00;;;;;13.01;81.92;101234.56;146613;628;46010;-71
2023/03/01 03:10:44;;;;;;;;;35.00;29.00;;;;;12.99;81.59;101236.25;146611;573;46016;-71
2023/03/01 03:13:47;;;;;;;;;36.25;30.00;;;;;13.00;81.74;101231.91;146609;636;47020;-72
2023/03/01 03:17:11;;;;;;;;;33.75;26.50;;;;;13.02;81.71;101230.25;146611;573;46017;-70
2023/03/01 03:20:19;;;;;;;;;33.75;29.75;;;;;13.05;81.83;101233.94;146612;597;46020;-69
2023/03/01 03:23:37;;;;;;;;;;;;;;;;;;;;;
2023/03/01 03:26:46;;;;;;;;;36.25;30.25;;;;;13.12;81.07;101237.72;146615;586;46010;-72
2023/03/01 03:29:47;;;;;;;;;34.75;29.50;;;;;13.14;80.92;101236.06;146612;572;46016;-73
2023/03/01 03:32:52;;;;;;;;;33.50;25.00;;;;;13.11;81.01;101247.22;146612;580;46021;-73
2023/03/01 03:36:12;;;;;;;;;25.75;20.25;;;;;12.19;80.34;101122.97;146612;658;46012;-74
2023/03/01 03:39:14;;;;;;;;;25.75;21.00;;;;;12.14;81.10;101092.34;146611;576;46021;-74
2023/03/01 03:42:26;;;;;;;;;24.00;22.00;;;;;13.03;81.39;101256.38;146607;604;46016;-75
2023/03/01 03:45:22;;;;;;;;;24.00;22.50;;;;;13.00;82.07;101253.63;146634;625;45020;-71
2023/03/01 03:48:28;;;;;;;;;26.75;22.25;;;;;12.99;82.22;101254.47;146633;593;45016;-72
2023/03/01 03:51:36;;;;;;;;;27.00;24.00;;;;;12.97;82.02;101244.78;146635;566;45010;-73
2023/03/01 03:55:01;;;;;;;;;27.75;23.75;;;;;11.23;81.32;100942.19;146626;588;47915;-72
2023/03/01 03:58:06;;;;;;;;;26.75;22.25;;;;;13.01;81.93;101250.19;146637;597;45010;-72
2023/03/01 04:01:39;;;;;;;;;27.25;22.50;;;;;13.02;81.93;101252.00;146634;595;45017;-71
2023/03/01 04:05:07;;;;;;;;;27.00;24.00;;;;;10.91;81.84;100886.03;146636;665;45020;-76
2023/03/01 04:08:11;;;;;;;;;27.00;25.25;;;;;12.99;82.38;101257.06;146637;586;45012;-78
2023/03/01 04:11:34;;;;;;;;;25.50;20.00;;;;;13.01;82.20;101258.00;146638;566;44020;-75
2023/03/01 04:14:38;;;;;;;;;28.25;23.25;;;;;13.04;82.41;101267.69;146634;594;45017;-74
2023/03/01 04:17:45;;;;;;;;;23.25;20.75;;;;;13.04;81.90;101271.19;146629;706;45020;-75
2023/03/01 04:20:58;;;;;;;;;23.00;20.00;;;;;12.06;82.08;101102.38;146630;575;45016;-75
2023/03/01 04:24:03;;;;;;;;;24.00;19.50;;;;;13.09;82.10;101281.84;146633;588;45021;-76
2023/03/01 04:27:19;;;;;;;;;26.00;22.50;;;;;13.14;81.99;101275.13;146632;580;45913;-72
2023/03/01 04:30:25;;;;;;;;;22.25;19.50;;;;;13.19;81.62;101273.66;146636;658;45010;-72
2023/03/01 04:33:39;;;;;;;;;23.50;22.00;;;;;13.21;81.92;101279.84;146634;587;45016;-72
2023/03/01 04:36:42;;;;;;;;;23.75;19.25;;;;;13.21;81.45;101274.63;146634;581;45020;-76
2023/03/01 04:39:47;;;;;;;;;25.50;19.75;;;;;13.24;81.29;101271.25;146631;565;46012;-74
2023/03/01 04:42:54;;;;;;;;;27.50;19.25;;;;;11.52;80.93;100972.25;146630;563;47020;-72
2023/03/01 04:46:02;;;;;;;;;22.25;20.00;;;;;13.23;81.65;101270.38;146633;579;45911;-73
2023/03/01 04:49:13;;;;;;;;;23.00;21.50;;;;;13.23;82.05;101269.50;146631;569;45010;-72
2023/03/01 04:52:24;;;;;;;;;24.75;21.75;;;;;11.23;81.14;100923.16;146631;570;45017;-73
2023/03/01 04:55:33;;;;;;;;;;;;;;;;;;;;;
2023/03/01 04:58:36;;;;;;;;;27.75;21.25;;;;;13.23;81.24;101262.56;146634;594;46012;-73
2023/03/01 05:01:35;;;;;;;;;25.50;24.00;;;;;13.23;82.11;101272.97;146635;609;44915;-72
2023/03/01 05:04:51;;;;;;;;;27.25;23.75;;;;;11.24;80.77;100925.81;146636;596;45012;-72
2023/03/01 05:08:01;;;;;;;;;30.00;26.25;;;;;11.13;81.52;100906.22;146637;614;45010;-72
2023/03/01 05:10:57;;;;;;;;;24.25;22.25;;;;;13.19;82.11;101271.06;146633;584;45016;-73
2023/03/01 05:14:04;;;;;;;;;24.00;23.25;;;;;11.18;82.42;100914.22;146633;612;46010;-72
2023/03/01 05:17:04;;;;;;;;;28.50;23.50;;;;;13.16;82.41;101277.00;146635;604;45012;-74
2023/03/01 05:20:01;;;;;;;;;25.75;23.00;;;;;13.19;81.87;101273.66;146631;573;45018;-74
2023/03/01 05:23:18;;;;;;;;;24.00;21.00;;;;;13.22;81.33;101276.41;146634;579;45911;-75
2023/03/01 05:26:24;;;;;;;;;29.25;23.50;;;;;13.26;81.75;101280.09;146632;563;45020;-73
2023/03/01 05:29:35;;;;;;;;;28.25;24.50;;;;;13.26;81.92;101280.97;146634;644;46012;-71
2023/03/01 05:32:40;;;;;;;;;32.00;26.75;;;;;13.23;82.62;101278.19;146635;608;45020;-71
2023/03/01 05:36:00;;;;;;;;;29.50;22.25;;;;;13.22;81.90;101284.22;146634;585;45915;-72
2023/03/01 05:39:23;;;;;;;;;25.75;20.50;;;;;13.24;81.78;101286.88;146636;730;45010;-71
2023/03/01 05:42:33;;;;;;;;;29.75;24.50;;;;;13.25;82.27;101287.03;146636;649;45016;-74
2023/03/01 05:45:40;;;;;;;;;23.50;19.75;;;;;13.26;82.10;101290.50;146633;590;46048;-76
2023/03/01 05:48:46;;;;;;;;;25.00;21.00;;;;;13.27;82.02;101281.88;146634;580;45016;-74
2023/03/01 05:51:58;;;;;;;;;25.75;22.00;;;;;13.31;81.67;101281.22;146635;564;45021;-73
2023/03/01 05:55:06;;;;;;;;;;;;;;;;;;;;;
2023/03/01 05:58:06;;;;;;;;;21.75;20.25;;;;;13.43;81.67;101279.22;146636;638;45011;-74
2023/03/01 06:01:05;;;;;;;;;32.25;25.00;;;;;12.64;81.55;101131.25;146635;607;45913;-74
2023/03/01 06:04:00;;;;;;;;;26.00;23.50;;;;;13.57;81.23;101291.19;146634;605;45020;-73
2023/03/01 06:07:00;;;;;;;;;25.00;22.00;;;;;13.62;81.33;101292.31;146632;582;46012;-73
2023/03/01 06:09:59;;;;;;;;;28.50;25.00;;;;;13.69;81.01;101298.69;146636;635;45020;-72
2023/03/01 06:13:05;;;;;;;;;40.00;30.50;;;;;12.61;80.12;101130.22;146634;700;45030;-72
2023/03/01 06:16:19;;;;;;;;;38.00;31.00;;;;;13.78;80.61;101306.06;146637;645;45020;-72
2023/03/01 06:19:23;;;;;;;;;34.25;28.50;;;;;13.81;80.24;101304.50;146631;595;45913;-74
2023/03/01 06:22:38;;;;;;;;;25.00;21.50;;;;;12.60;79.82;101094.63;146635;577;46019;-71
2023/03/01 06:25:41;;;;;;;;;25.25;23.75;;;;;13.86;79.90;101312.50;146631;585;46012;-72
2023/03/01 06:28:48;;;;;;;;;22.50;20.00;;;;;13.91;79.60;101320.56;146638;579;45010;-74
2023/03/01 06:31:50;;;;;;;;;23.25;22.00;;;;;13.94;79.21;101331.16;146629;616;46014;-74
2023/03/01 06:35:03;;;;;;;;;22.00;19.75;;;;;12.81;78.61;101132.09;146635;581;45020;-72
2023/03/01 06:37:57;;;;;;;;;32.25;21.00;;;;;13.97;79.11;101326.06;146633;597;45016;-73
2023/03/01 06:41:11;;;;;;;;;27.75;21.50;;;;;11.95;78.26;100973.56;146635;600;45020;-73
2023/03/01 06:44:35;;;;;;;;;16.75;15.75;;;;;14.02;78.59;101335.91;146622;590;46016;-73
2023/03/01 06:47:46;;;;;;;;;20.75;18.00;;;;;14.05;78.88;101333.44;146612;569;46030;-73
2023/03/01 06:50:50;;;;;;;;;19.75;17.50;;;;;12.19;77.91;101011.16;146609;586;46013;-72
2023/03/01 06:54:03;;;;;;;;;;;;;;;;;;;;;
2023/03/01 06:56:57;;;;;;;;;25.50;20.75;;;;;14.02;79.21;101345.44;146613;606;46016;-75
2023/03/01 06:59:55;;;;;;;;;22.00;19.25;;;;;13.99;80.93;101345.31;146612;565;46021;-75
2023/03/01 07:02:53;;;;;;;;;25.00;19.00;;;;;13.89;80.77;101348.28;146610;648;47032;-75
2023/03/01 07:05:52;;;;;;;;;21.25;18.00;;;;;13.82;80.06;101347.09;146614;574;45021;-74
2023/03/01 07:08:47;;;;;;;;;27.25;22.25;;;;;13.82;80.24;101358.41;146610;618;46012;-76
2023/03/01 07:11:44;;;;;;;;;41.50;33.50;;;;;13.86;80.09;101367.25;146614;714;46021;-75
2023/03/01 07:14:38;;;;;;;;;51.50;40.00;;;;;13.86;79.98;101367.25;146612;656;46026;-74
2023/03/01 07:17:33;;;;;;;;;28.75;23.00;;;;;13.91;79.99;101372.72;146611;573;46020;-74
2023/03/01 07:20:26;;;;;;;;;25.50;23.00;;;;;13.92;81.11;101374.47;146613;580;46016;-74
2023/03/01 07:23:19;;;;;;;;;32.75;23.75;;;;;13.92;80.45;101374.47;146612;596;46020;-74
2023/03/01 07:26:20;;;;;;;;;21.25;16.50;;;;;13.94;80.02;101378.06;146609;582;46016;-73
2023/03/01 07:29:23;;;;;;;;;30.00;25.50;;;;;13.93;79.87;101384.12;146614;607;47010;-73
2023/03/01 07:32:20;;;;;;;;;26.50;23.00;;;;;13.92;79.66;101388.41;146609;577;46016;-78
2023/03/01 07:35:22;;;;;;;;;22.25;18.75;;;;;13.95;80.00;101390.28;146614;609;46012;-77
2023/03/01 07:38:26;;;;;;;;;23.00;20.75;;;;;13.95;79.99;101390.28;146608;576;46034;-76
2023/03/01 07:41:39;;;;;;;;;;;;;;;;;;;;;
2023/03/01 07:44:48;;;;;;;;;40.25;30.50;;;;;13.92;79.32;101392.72;146613;639;46012;-73
2023/03/01 07:47:46;;;;;;;;;44.00;33.00;;;;;13.93;79.22;101399.75;146620;620;47010;-75
2023/03/01 07:50:49;;;;;;;;;28.00;25.00;;;;;13.94;78.87;101398.94;146609;581;46913;-71
2023/03/01 07:53:54;;;;;;;;;21.25;17.75;;;;;13.98;79.42;101403.47;146619;572;46020;-72
2023/03/01 07:57:13;;;;;;;;;19.25;18.50;;;;;14.01;78.91;101394.06;146616;612;46017;-72
2023/03/01 08:00:18;;;;;;;;;23.00;17.75;;;;;14.08;79.02;101396.16;146620;781;46020;-71
2023/03/01 08:03:31;;;;;;;;;16.00;16.00;;;;;12.20;78.48;101048.44;146615;591;46016;-69
2023/03/01 08:06:40;;;;;;;;;18.25;14.25;;;;;12.29;78.17;101056.72;146619;565;46020;-68
2023/03/01 08:09:56;;;;;;;;;17.25;13.50;;;;;14.31;78.39;101399.84;146617;573;46012;-68
2023/03/01 08:12:54;;;;;;;;;22.75;20.50;;;;;14.39;78.84;101392.41;146619;564;46021;-68
2023/03/01 08:15:48;;;;;;;;;17.25;16.50;;;;;14.45;78.29;101396.97;146617;587;46012;-69
2023/03/01 08:18:54;;;;;;;;;21.75;17.25;;;;;12.59;77.43;101061.66;146619;605;46013;-68
2023/03/01 08:22:08;;;;;;;;;18.25;16.50;;;;;14.58;77.29;101402.00;146617;615;46012;-69
2023/03/01 08:25:22;;;;;;;;;57.00;41.75;;;;;12.93;76.62;101111.87;146617;584;46028;-69
2023/03/01 08:28:20;;;;;;;;;105.33;86.00;;;;;14.64;77.48;101403.97;146617;582;46913;-69
2023/03/01 08:31:55;;;;;;;;;106.00;86.67;;;;;14.69;76.77;101395.53;146627;792;46020;-69
2023/03/01 08:34:54;;;;;;;;;30.50;26.50;;;;;14.78;77.55;101405.50;146620;606;47014;-68
2023/03/01 08:38:14;;;;;;;;;;;;;;;;;;;;;
2023/03/01 08:41:14;;;;;;;;;45.25;34.50;;;;;14.68;76.91;101400.69;146619;628;46030;-70
2023/03/01 08:44:21;;;;;;;;;;;;;;;;;;;;;
2023/03/01 08:47:27;;;;;;;;;52.00;42.00;;;;;14.65;77.39;101397.94;146612;589;46016;-70
2023/03/01 08:50:40;;;;;;;;;39.00;30.00;;;;;14.63;77.33;101405.69;146611;689;46012;-68
2023/03/01 08:53:38;;;;;;;;;36.75;31.75;;;;;14.64;77.42;101403.97;146608;614;46012;-69
2023/03/01 08:56:58;;;;;;;;;;;;;;;;;;;;;
2023/03/01 09:00:21;;;;;;;;;38.00;32.75;;;;;14.57;77.56;101400.19;146610;605;46016;-68
2023/03/01 09:03:22;;;;;;;;;45.25;35.25;;;;;14.46;78.26;101401.41;146614;573;46020;-69
2023/03/01 09:06:48;;;;;;;;;36.00;29.25;;;;;12.20;78.20;101020.75;146611;618;46014;-68
2023/03/01 09:09:45;;;;;;;;;38.25;33.50;;;;;14.33;79.84;101410.37;146614;576;46021;-68
2023/03/01 09:12:44;;;;;;;;;32.00;28.00;;;;;14.23;79.67;101393.37;146606;598;47012;-69
2023/03/01 09:15:55;;;;;;;;;36.50;29.25;;;;;12.88;79.57;101175.81;146615;679;46010;-68
2023/03/01 09:19:11;;;;;;;;;46.75;34.75;;;;;14.16;80.82;101403.47;146612;629;46016;-68
2023/03/01 09:22:45;;;;;;;;;61.25;47.00;;;;;12.86;79.99;101168.75;146612;577;47012;-69
2023/03/01 09:25:43;;;;;;;;;41.00;32.75;;;;;14.17;81.64;101397.41;146611;640;46017;-68
2023/03/01 09:28:45;;;;;;;;;51.25;40.50;;;;;14.19;81.25;101394.06;146613;584;46020;-69
2023/03/01 09:31:46;;;;;;;;;57.00;43.75;;;;;14.25;81.47;101399.56;146611;611;47032;-69
2023/03/01 09:38:06;;;;;;;;;46.75;35.00;;;;;14.31;81.14;101385.91;146611;593;46038;-68
2023/03/01 09:41:03;;;;;;;;;42.25;32.75;;;;;14.35;81.45;101386.94;146611;640;46011;-68
2023/03/01 09:44:22;;;;;;;;;37.50;32.00;;;;;14.41;82.02;101387.25;146607;634;46012;-68
2023/03/01 09:47:41;;;;;;;;;50.50;40.00;;;;;14.44;81.70;101382.16;146614;595;46020;-69
2023/03/01 09:50:39;;;;;;;;;47.25;38.50;;;;;14.45;81.41;101381.31;146606;578;47014;-68
2023/03/01 09:53:43;;;;;;;;;45.50;36.00;;;;;14.47;81.16;101377.97;146617;622;46010;-69
2023/03/01 09:57:16;;;;;;;;;56.75;45.50;;;;;12.46;79.97;101015.91;146611;685;46013;-70
2023/03/01 10:00:44;;;;;;;;;51.00;41.75;;;;;12.48;79.45;101011.69;146615;605;46020;-73
2023/03/01 10:04:13;;;;;;;;;49.50;37.75;;;;;14.60;81.10;101379.44;146610;628;46016;-73
2023/03/01 10:08:03;;;;;;;;;38.25;32.25;;;;;14.68;80.15;101367.66;146615;784;46010;-73
2023/03/01 10:11:02;;;;;;;;;48.50;38.00;;;;;14.73;80.71;101366.13;146612;607;46018;-73
2023/03/01 10:14:49;;;;;;;;;46.00;37.00;;;;;14.82;79.97;101365.63;146612;586;46020;-73
2023/03/01 10:18:27;;;;;;;;;31.75;29.00;;;;;12.87;79.27;101012.69;146610;578;46016;-73
2023/03/01 10:21:28;;;;;;;;;29.50;27.00;;;;;15.01;79.16;101372.56;146615;660;46012;-74
2023/03/01 10:24:37;;;;;;;;;;;;;;;;;;;;;
2023/03/01 10:28:24;;;;;;;;;30.00;26.25;;;;;13.51;77.05;101094.59;146616;574;46012;-73
2023/03/01 10:32:00;;;;;;;;;31.00;27.00;;;;;13.29;76.84;101051.94;146611;563;46016;-72
2023/03/01 10:35:07;;;;;;;;;21.75;20.50;;;;;15.10;76.21;101366.84;146608;635;47012;-70
2023/03/01 10:38:43;;;;;;;;;28.50;20.50;;;;;13.23;75.43;101053.34;146612;645;46014;-71
2023/03/01 10:42:11;;;;;;;;;22.00;20.00;;;;;15.00;75.36;101361.22;146608;571;46911;-71
2023/03/01 10:45:50;;;;;;;;;17.00;16.25;;;;;14.93;74.87;101348.72;146613;598;47012;-71
2023/03/01 10:49:09;;;;;;;;;20.25;16.50;;;;;14.92;75.34;101356.50;146613;571;46012;-71
2023/03/01 10:52:34;;;;;;;;;38.75;26.50;;;;;13.03;75.33;101029.00;146610;588;46016;-72
2023/03/01 10:55:53;;;;;;;;;;;;;;;;;;;;;
2023/03/01 10:59:34;;;;;;;;;36.25;31.50;;;;;13.19;74.98;101047.13;146611;714;47016;-71
2023/03/01 11:02:48;;;;;;;;;21.25;19.25;;;;;13.25;74.22;101057.84;146614;608;46021;-75
2023/03/01 11:06:10;;;;;;;;;15.25;12.25;;;;;14.89;73.47;101335.47;146611;575;47012;-72
2023/03/01 11:09:37;;;;;;;;;20.75;15.50;;;;;14.87;73.73;101327.59;146610;631;46021;-73
2023/03/01 11:12:39;;;;;;;;;35.00;28.50;;;;;14.90;74.31;101319.00;146609;606;46012;-73
2023/03/01 11:15:51;;;;;;;;;17.50;15.00;;;;;14.92;74.01;101314.72;146613;609;46010;-72
2023/03/01 11:19:35;;;;;;;;;17.50;15.75;;;;;14.94;73.72;101308.72;146608;569;47016;-71
2023/03/01 11:22:38;;;;;;;;;19.75;19.25;;;;;14.95;74.31;101307.00;146615;615;46020;-75
2023/03/01 11:26:17;;;;;;;;;17.00;14.75;;;;;12.36;73.61;100863.75;146609;564;46017;-76
2023/03/01 11:29:46;;;;;;;;;27.00;21.50;;;;;14.94;74.55;101316.56;146612;600;46020;-76
2023/03/01 11:33:21;;;;;;;;;19.50;17.75;;;;;12.94;74.31;100960.09;146608;654;47022;-74
2023/03/01 11:36:53;;;;;;;;;28.25;24.00;;;;;14.93;74.90;101300.84;146615;606;46020;-76
2023/03/01 11:40:36;;;;;;;;;;;;;;;;;;;;;
2023/03/01 11:44:32;;;;;;;;;33.00;26.25;;;;;14.89;74.16;101293.69;146614;584;46020;-81
2023/03/01 11:48:10;;;;;;;;;29.75;27.00;;;;;14.83;75.05;101286.50;146613;594;46025;-84
2023/03/01 11:51:52;;;;;;;;;30.75;27.25;;;;;13.00;75.55;100956.00;146613;692;46020;-74
2023/03/01 11:55:37;;;;;;;;;42.00;34.25;;;;;14.87;75.58;101280.59;146609;567;46016;-83
2023/03/01 11:59:29;;;;;;;;;26.00;22.75;;;;;13.84;74.58;101098.72;146613;599;46020;-80
2023/03/01 12:03:17;;;;;;;;;23.25;20.00;;;;;14.05;74.58;101105.69;146604;581;46027;-79
2023/03/01 12:07:09;;;;;;;;;;;;;;;;;;;;;
2023/03/01 12:10:44;;;;;;;;;30.25;28.00;;;;;13.30;74.50;100927.81;146611;571;46017;-75
2023/03/01 12:14:14;;;;;;;;;37.00;31.25;;;;;15.16;74.16;101237.37;146612;646;46010;-75
2023/03/01 12:18:09;;;;;;;;;;;;;;;;;;;;;
2023/03/01 12:22:04;;;;;;;;;33.00;28.25;;;;;14.50;74.12;101138.03;146612;563;46010;-74
2023/03/01 12:25:29;;;;;;;;;30.25;26.50;;;;;15.36;74.47;101250.37;146613;643;46017;-76
2023/03/01 12:28:58;;;;;;;;;29.25;24.75;;;;;15.43;74.27;101258.53;146610;592;47010;-76
2023/03/01 12:32:19;;;;;;;;;30.25;24.75;;;;;15.47;73.22;101265.66;146610;645;46017;-76
2023/03/01 12:35:59;;;;;;;;;32.00;26.50;;;;;15.46;72.51;101258.66;146615;582;46012;-72
2023/03/01 12:39:40;;;;;;;;;28.00;25.25;;;;;15.43;73.04;101255.91;146609;588;46016;-73
2023/03/01 12:43:02;;;;;;;;;28.50;24.50;;;;;15.44;73.59;101248.94;146609;576;46020;-72
2023/03/01 12:47:04;;;;;;;;;30.00;26.75;;;;;13.55;72.44;100916.75;146634;579;45031;-72
2023/03/01 12:50:21;;;;;;;;;28.25;22.75;;;;;15.45;72.65;101241.19;146635;573;45010;-75
2023/03/01 12:54:12;;;;;;;;;28.50;27.50;;;;;13.81;72.36;100944.78;146631;614;45864;-75
2023/03/01 12:57:50;;;;;;;;;29.50;26.75;;;;;15.51;73.01;101227.44;146630;685;46010;-76
2023/03/01 13:01:25;;;;;;;;;28.75;24.00;;;;;15.62;72.69;101233.13;146633;567;47913;-72
2023/03/01 13:05:04;;;;;;;;;34.25;30.25;;;;;13.77;72.23;100893.38;146635;595;45020;-73
2023/03/01 13:08:39;;;;;;;;;30.75;24.25;;;;;14.04;71.87;100922.25;146629;576;46012;-73
2023/03/01 13:11:39;;;;;;;;;28.75;25.00;;;;;15.79;72.06;101232.06;146633;572;45020;-69
2023/03/01 13:15:19;;;;;;;;;33.00;26.25;;;;;15.74;72.01;101228.38;146631;600;46014;-72
2023/03/01 13:18:41;;;;;;;;;29.50;24.50;;;;;13.70;71.52;100861.78;146628;578;46010;-73
2023/03/01 13:22:14;;;;;;;;;25.25;22.00;;;;;15.80;72.45;101209.44;146634;583;45016;-73
2023/03/01 13:25:58;;;;;;;;;22.50;18.25;;;;;15.90;71.72;101208.94;146637;567;45020;-73
2023/03/01 13:29:37;;;;;;;;;26.00;22.75;;;;;16.06;72.03;101200.81;146633;599;46012;-72
2023/03/01 13:32:47;;;;;;;;;29.25;25.25;;;;;16.17;71.02;101203.84;146634;578;45021;-74
2023/03/01 13:35:52;;;;;;;;;14.25;11.50;;;;;16.21;70.53;101199.59;146633;603;45016;-73
2023/03/01 13:39:16;;;;;;;;;27.75;23.75;;;;;16.24;70.50;101207.56;146636;613;45021;-73
2023/03/01 13:42:47;;;;;;;;;18.25;14.75;;;;;14.34;70.28;100869.53;146632;616;45016;-73
2023/03/01 13:46:10;;;;;;;;;20.50;19.75;;;;;16.31;69.70;101199.09;146621;565;47020;-74
2023/03/01 13:49:08;;;;;;;;;24.50;19.75;;;;;16.32;69.22;101206.09;146614;569;46912;-74
2023/03/01 13:52:46;;;;;;;;;32.75;23.50;;;;;14.47;69.29;100896.97;146619;578;46020;-73
2023/03/01 13:56:21;;;;;;;;;32.75;26.25;;;;;16.21;69.73;101225.75;146618;581;46017;-74
2023/03/01 13:59:50;;;;;;;;;31.75;27.50;;;;;14.18;69.17;100917.63;146618;614;47010;-74
2023/03/01 14:02:58;;;;;;;;;28.75;24.00;;;;;15.79;69.84;101233.78;146615;566;46016;-75
2023/03/01 14:06:36;;;;;;;;;22.00;21.00;;;;;15.57;71.08;101230.31;146617;586;46031;-73
2023/03/01 14:09:45;;;;;;;;;21.25;18.75;;;;;15.34;71.13;101239.84;146616;632;46017;-73
2023/03/01 14:13:14;;;;;;;;;26.25;25.50;;;;;14.97;71.69;101217.47;146620;571;46020;-73
2023/03/01 14:17:25;;;;;;;;;30.75;27.75;;;;;13.93;71.85;101048.69;146617;626;47014;-69
2023/03/01 14:20:55;;;;;;;;;21.25;16.25;;;;;13.70;72.68;101031.16;146622;696;46010;-74
2023/03/01 14:24:05;;;;;;;;;19.75;15.25;;;;;14.95;73.24;101226.97;146617;570;46037;-73
2023/03/01 14:27:02;;;;;;;;;15.50;14.50;;;;;15.04;72.93;101230.78;146619;573;46020;-72
2023/03/01 14:30:09;;;;;;;;;21.75;16.00;;;;;15.12;72.32;101224.16;146616;570;46012;-72
2023/03/01 14:33:30;;;;;;;;;22.00;20.50;;;;;15.19;72.58;101227.06;146620;603;46010;-72
2023/03/01 14:36:39;;;;;;;;;24.00;17.75;;;;;15.24;71.32;101222.94;146617;624;46016;-73
2023/03/01 14:39:56;;;;;;;;;18.25;16.25;;;;;15.21;71.77;101225.41;146619;630;46010;-73
2023/03/01 14:43:14;;;;;;;;;19.00;15.75;;;;;13.46;71.94;100919.88;146615;575;46912;-72
2023/03/01 14:46:26;;;;;;;;;21.75;14.75;;;;;15.16;71.94;101213.88;146633;564;45021;-72
2023/03/01 14:49:48;;;;;;;;;20.00;18.75;;;;;15.14;72.05;101214.62;146634;569;46014;-74
2023/03/01 14:53:01;;;;;;;;;17.50;15.50;;;;;15.11;71.63;101204.06;146631;583;45030;-73
2023/03/01 14:56:22;;;;;;;;;21.75;19.00;;;;;13.08;71.39;100858.28;146632;569;46012;-72
2023/03/01 14:59:27;;;;;;;;;19.25;17.25;;;;;15.04;72.23;101205.53;146635;564;45010;-73
2023/03/01 15:02:39;;;;;;;;;20.25;17.00;;;;;14.99;72.15;101202.75;146632;665;45016;-72
2023/03/01 15:05:43;;;;;;;;;24.50;22.50;;;;;14.96;72.55;101205.25;146633;604;45020;-72
2023/03/01 15:08:54;;;;;;;;;20.50;18.50;;;;;13.94;72.21;101021.78;146631;664;45911;-72
2023/03/01 15:12:06;;;;;;;;;21.75;18.75;;;;;14.91;72.69;101190.22;146634;577;45010;-73
2023/03/01 15:15:23;;;;;;;;;26.25;20.00;;;;;14.88;72.75;101190.97;146635;608;45035;-72